Time;durP1;ratioP1;P1;durP2;ratioP2;P2;SDS_P1;SDS_P2;PMS_P1;PMS_P2;Temp;Humidity;BMP_temperature;BMP_pressure;BME280_temperature;BME280_humidity;BME280_pressure;Samples;Min_cycle;Max_cycle;Signal;HPM_P1;HPM_P2
2022/07/08 00:00:13;;;;;;;13.15;1.80;;;;;;;;;;4987788;28;20050;-64
2022/07/08 00:02:40;;;;;;;16.85;1.95;;;;;;;;;;4984947;28;20121;-65
2022/07/08 00:05:08;;;;;;;18.75;2.03;;;;;;;;;;4985382;28;20050;-64
2022/07/08 00:07:37;;;;;;;11.27;1.77;;;;;;;;;;4985651;28;20101;-64
2022/07/08 00:10:04;;;;;;;16.25;2.20;;;;;;;;;;4982644;28;20042;-64
2022/07/08 00:12:32;;;;;;;13.55;1.90;;;;;;;;;;4985180;28;20095;-64
2022/07/08 00:14:59;;;;;;;12.32;2.08;;;;;;;;;;4970225;28;20062;-64
2022/07/08 00:17:27;;;;;;;10.52;1.60;;;;;;;;;;4969151;28;20702;-65
2022/07/08 00:19:54;;;;;;;12.23;1.83;;;;;;;;;;4983910;28;20084;-64
2022/07/08 00:22:21;;;;;;;11.35;1.70;;;;;;;;;;4984752;28;20089;-65
2022/07/08 00:24:50;;;;;;;11.93;2.25;;;;;;;;;;4968277;28;20054;-64
2022/07/08 00:27:17;;;;;;;11.98;1.88;;;;;;;;;;4966304;28;20058;-65
2022/07/08 00:29:44;;;;;;;12.23;1.77;;;;;;;;;;4984708;28;20058;-64
2022/07/08 00:32:12;;;;;;;9.38;1.70;;;;;;;;;;4983960;28;20053;-64
2022/07/08 00:34:39;;;;;;;11.70;1.90;;;;;;;;;;4981171;28;20096;-65
2022/07/08 00:37:07;;;;;;;14.88;2.10;;;;;;;;;;4983098;28;20106;-65
2022/07/08 00:39:34;;;;;;;13.02;2.00;;;;;;;;;;4991779;28;20054;-65
2022/07/08 00:42:03;;;;;;;12.95;2.38;;;;;;;;;;4982337;28;20105;-65
2022/07/08 00:44:30;;;;;;;10.07;1.63;;;;;;;;;;4979805;28;20042;-65
2022/07/08 00:46:57;;;;;;;8.05;1.75;;;;;;;;;;4983436;28;20054;-65
2022/07/08 00:49:25;;;;;;;17.75;1.95;;;;;;;;;;4989196;28;20043;-65
2022/07/08 00:51:52;;;;;;;11.20;1.60;;;;;;;;;;4982272;28;20050;-64
2022/07/08 00:54:20;;;;;;;17.52;1.95;;;;;;;;;;4984238;28;20960;-65
2022/07/08 00:56:48;;;;;;;9.45;1.80;;;;;;;;;;4983922;28;20163;-65
2022/07/08 00:59:17;;;;;;;11.35;1.88;;;;;;;;;;4987745;28;20105;-65
2022/07/08 01:01:44;;;;;;;9.70;2.00;;;;;;;;;;4983895;28;20051;-64
2022/07/08 01:04:11;;;;;;;12.82;1.90;;;;;;;;;;4981610;28;20053;-64
2022/07/08 01:06:39;;;;;;;9.73;1.60;;;;;;;;;;4982765;28;20042;-64
2022/07/08 01:09:07;;;;;;;8.77;1.63;;;;;;;;;;4983333;28;20583;-64
2022/07/08 01:11:34;;;;;;;17.08;2.17;;;;;;;;;;4985114;28;20050;-64
2022/07/08 01:14:02;;;;;;;17.77;1.92;;;;;;;;;;4984402;28;20509;-65
2022/07/08 01:16:30;;;;;;;9.88;1.73;;;;;;;;;;4977536;28;20055;-65
2022/07/08 01:18:57;;;;;;;8.80;1.48;;;;;;;;;;4981758;28;20829;-65
2022/07/08 01:21:26;;;;;;;9.52;2.00;;;;;;;;;;4983337;28;20125;-64
2022/07/08 01:23:53;;;;;;;9.02;1.90;;;;;;;;;;4982866;28;20046;-65
2022/07/08 01:26:21;;;;;;;9.00;1.90;;;;;;;;;;4983258;28;20057;-65
2022/07/08 01:28:48;;;;;;;14.07;1.98;;;;;;;;;;4982870;28;20046;-65
2022/07/08 01:31:15;;;;;;;7.65;1.58;;;;;;;;;;4982529;28;20046;-64
2022/07/08 01:33:42;;;;;;;12.00;1.88;;;;;;;;;;4981240;28;20097;-64
2022/07/08 01:36:10;;;;;;;11.05;1.73;;;;;;;;;;4989817;28;20799;-65
2022/07/08 01:38:38;;;;;;;8.15;1.83;;;;;;;;;;4987089;28;20050;-64
2022/07/08 01:41:06;;;;;;;17.20;2.15;;;;;;;;;;4984655;28;20054;-64
2022/07/08 01:43:34;;;;;;;12.45;1.92;;;;;;;;;;4984167;28;20046;-64
2022/07/08 01:46:01;;;;;;;10.02;1.55;;;;;;;;;;4983044;28;20049;-65
2022/07/08 01:48:28;;;;;;;8.27;1.95;;;;;;;;;;4981283;28;20058;-64
2022/07/08 01:50:55;;;;;;;10.65;2.28;;;;;;;;;;4980736;28;20125;-65
2022/07/08 01:53:23;;;;;;;16.33;1.95;;;;;;;;;;4983503;28;20109;-64
2022/07/08 01:55:51;;;;;;;14.18;2.25;;;;;;;;;;4982422;28;20058;-64
2022/07/08 01:58:18;;;;;;;10.27;1.60;;;;;;;;;;4983249;28;20149;-65
2022/07/08 02:00:45;;;;;;;13.30;2.20;;;;;;;;;;4982111;28;20460;-64
2022/07/08 02:03:13;;;;;;;15.27;1.73;;;;;;;;;;4984559;28;20054;-65
2022/07/08 02:05:40;;;;;;;14.32;1.83;;;;;;;;;;4981873;28;20038;-64
2022/07/08 02:08:07;;;;;;;17.92;2.72;;;;;;;;;;4983179;28;20053;-64
2022/07/08 02:13:17;;;;;;;16.25;2.42;;;;;;;;;;4981784;28;20069;-64
2022/07/08 02:15:44;;;;;;;15.80;2.15;;;;;;;;;;4981779;28;20511;-64
2022/07/08 02:18:12;;;;;;;13.73;2.10;;;;;;;;;;4976401;28;20070;-65
2022/07/08 02:20:39;;;;;;;13.55;1.80;;;;;;;;;;4981831;28;20042;-64
2022/07/08 02:23:06;;;;;;;15.32;1.88;;;;;;;;;;4982940;28;20531;-65
2022/07/08 02:25:33;;;;;;;12.32;2.40;;;;;;;;;;4982219;28;20467;-65
2022/07/08 02:28:01;;;;;;;12.95;2.13;;;;;;;;;;4985430;28;20091;-64
2022/07/08 02:30:29;;;;;;;12.52;1.70;;;;;;;;;;4979845;28;20054;-64
2022/07/08 02:32:56;;;;;;;19.35;2.35;;;;;;;;;;4967177;28;20630;-64
2022/07/08 02:35:24;;;;;;;12.57;2.10;;;;;;;;;;4981713;28;20136;-64
2022/07/08 02:37:51;;;;;;;12.52;2.38;;;;;;;;;;4977981;28;20588;-64
2022/07/08 02:40:18;;;;;;;7.85;2.03;;;;;;;;;;4979934;28;20058;-64
2022/07/08 02:42:45;;;;;;;13.05;2.25;;;;;;;;;;4982632;28;20058;-64
2022/07/08 02:45:13;;;;;;;9.73;1.80;;;;;;;;;;4983333;28;20042;-64
2022/07/08 02:47:41;;;;;;;22.60;2.70;;;;;;;;;;4982066;28;20056;-65
2022/07/08 02:50:09;;;;;;;14.77;2.65;;;;;;;;;;4982450;28;20109;-65
2022/07/08 02:52:36;;;;;;;13.10;2.58;;;;;;;;;;4980558;28;20501;-65
2022/07/08 02:55:04;;;;;;;11.40;2.03;;;;;;;;;;4982463;28;20133;-64
2022/07/08 02:57:31;;;;;;;15.60;2.40;;;;;;;;;;4981583;28;20093;-64
2022/07/08 02:59:58;;;;;;;12.13;1.90;;;;;;;;;;4984377;28;20097;-64
2022/07/08 03:02:26;;;;;;;16.45;2.50;;;;;;;;;;4982281;28;20113;-65
2022/07/08 03:04:54;;;;;;;18.50;2.15;;;;;;;;;;4982134;28;20049;-64
2022/07/08 03:07:22;;;;;;;16.80;2.63;;;;;;;;;;4982133;28;20059;-64
2022/07/08 03:09:49;;;;;;;13.68;1.85;;;;;;;;;;4978977;28;20053;-64
2022/07/08 03:12:16;;;;;;;21.58;2.50;;;;;;;;;;4980138;28;20055;-64
2022/07/08 03:14:43;;;;;;;11.35;2.17;;;;;;;;;;4983008;28;20046;-65
2022/07/08 03:17:11;;;;;;;13.25;2.00;;;;;;;;;;4986088;28;20100;-64
2022/07/08 03:19:38;;;;;;;16.63;2.00;;;;;;;;;;4985009;28;20117;-64
2022/07/08 03:22:07;;;;;;;14.75;2.22;;;;;;;;;;4987364;28;20058;-64
2022/07/08 03:24:34;;;;;;;11.85;2.20;;;;;;;;;;4985077;28;20051;-65
2022/07/08 03:27:01;;;;;;;17.20;1.80;;;;;;;;;;4987985;28;20069;-64
2022/07/08 03:29:28;;;;;;;15.25;2.15;;;;;;;;;;4983721;28;20073;-64
2022/07/08 03:31:56;;;;;;;14.75;2.25;;;;;;;;;;4977619;28;20105;-64
2022/07/08 03:34:23;;;;;;;11.82;2.25;;;;;;;;;;4983174;28;20061;-65
2022/07/08 03:36:51;;;;;;;13.15;2.10;;;;;;;;;;4987698;28;20501;-64
2022/07/08 03:39:19;;;;;;;10.75;2.42;;;;;;;;;;4987243;28;20046;-64
2022/07/08 03:41:45;;;;;;;12.90;2.03;;;;;;;;;;4984999;28;20046;-65
2022/07/08 03:44:13;;;;;;;14.13;2.30;;;;;;;;;;4985997;28;20155;-64
2022/07/08 03:46:40;;;;;;;15.00;2.65;;;;;;;;;;4976932;28;20050;-65
2022/07/08 03:49:07;;;;;;;15.82;2.40;;;;;;;;;;4985326;28;20054;-64
2022/07/08 03:51:35;;;;;;;14.23;2.15;;;;;;;;;;4968548;28;20117;-64
2022/07/08 03:54:02;;;;;;;18.45;2.65;;;;;;;;;;4984041;28;20058;-64
2022/07/08 03:56:30;;;;;;;13.93;2.05;;;;;;;;;;4985477;28;20058;-64
2022/07/08 03:58:58;;;;;;;13.55;2.75;;;;;;;;;;4985619;28;20065;-64
2022/07/08 04:01:25;;;;;;;16.42;2.30;;;;;;;;;;4985217;28;20050;-64
2022/07/08 04:03:52;;;;;;;11.60;1.88;;;;;;;;;;4985172;28;20418;-65
2022/07/08 04:06:19;;;;;;;17.08;2.47;;;;;;;;;;4985317;28;20053;-66
2022/07/08 04:08:47;;;;;;;13.13;1.80;;;;;;;;;;4984828;28;20050;-64
2022/07/08 04:11:14;;;;;;;14.52;2.15;;;;;;;;;;4985985;28;20058;-65
2022/07/08 04:13:43;;;;;;;12.98;1.95;;;;;;;;;;4984686;28;20133;-64
2022/07/08 04:16:12;;;;;;;15.85;2.47;;;;;;;;;;4985416;28;20607;-65
2022/07/08 04:18:40;;;;;;;15.82;2.25;;;;;;;;;;4982751;28;20038;-64
2022/07/08 04:21:08;;;;;;;12.90;2.03;;;;;;;;;;4984092;28;20050;-64
2022/07/08 04:23:35;;;;;;;18.70;2.15;;;;;;;;;;4983490;28;20104;-65
2022/07/08 04:26:02;;;;;;;15.95;2.00;;;;;;;;;;4984674;28;20057;-65
2022/07/08 04:28:29;;;;;;;18.05;2.83;;;;;;;;;;4985224;28;20050;-65
2022/07/08 04:30:58;;;;;;;19.58;2.72;;;;;;;;;;4980370;28;20047;-64
2022/07/08 04:33:25;;;;;;;14.23;2.30;;;;;;;;;;4980023;28;20551;-64
2022/07/08 04:35:53;;;;;;;12.63;2.38;;;;;;;;;;4981584;28;20509;-65
2022/07/08 04:38:20;;;;;;;19.58;2.38;;;;;;;;;;4983427;28;20054;-64
2022/07/08 04:40:47;;;;;;;18.17;2.47;;;;;;;;;;4983595;28;20072;-64
2022/07/08 04:43:14;;;;;;;8.68;1.83;;;;;;;;;;4984164;28;20104;-64
2022/07/08 04:45:42;;;;;;;20.90;4.00;;;;;;;;;;4979349;28;20054;-64
2022/07/08 04:48:10;;;;;;;22.25;2.55;;;;;;;;;;4982799;28;20062;-64
2022/07/08 04:50:37;;;;;;;14.23;2.08;;;;;;;;;;4983927;28;20038;-65
2022/07/08 04:53:05;;;;;;;14.85;2.17;;;;;;;;;;4982374;28;20050;-64
2022/07/08 04:55:32;;;;;;;15.35;2.45;;;;;;;;;;4982069;28;20046;-64
2022/07/08 04:58:00;;;;;;;14.07;2.33;;;;;;;;;;4984741;28;20054;-64
2022/07/08 05:00:27;;;;;;;13.80;2.05;;;;;;;;;;4978471;28;20050;-64
2022/07/08 05:02:54;;;;;;;14.98;1.92;;;;;;;;;;4982533;28;20046;-64
2022/07/08 05:05:23;;;;;;;15.80;2.47;;;;;;;;;;4981053;28;20416;-64
2022/07/08 05:07:51;;;;;;;12.40;1.92;;;;;;;;;;4981741;28;20136;-64
2022/07/08 05:10:21;;;;;;;16.05;2.38;;;;;;;;;;4983245;28;20412;-65
2022/07/08 05:12:50;;;;;;;18.88;2.47;;;;;;;;;;4984664;28;20050;-65
2022/07/08 05:15:17;;;;;;;14.00;2.60;;;;;;;;;;4982137;28;20046;-65
2022/07/08 05:17:44;;;;;;;14.40;2.65;;;;;;;;;;4981854;28;20061;-64
2022/07/08 05:20:12;;;;;;;10.23;2.03;;;;;;;;;;4979743;28;20110;-64
2022/07/08 05:22:41;;;;;;;15.30;2.65;;;;;;;;;;4982444;28;20058;-64
2022/07/08 05:25:09;;;;;;;13.93;2.17;;;;;;;;;;4980917;28;20086;-65
2022/07/08 05:27:36;;;;;;;18.75;2.42;;;;;;;;;;4970402;28;20058;-65
2022/07/08 05:30:04;;;;;;;17.08;2.35;;;;;;;;;;4982786;28;20050;-64
2022/07/08 05:32:31;;;;;;;18.50;2.15;;;;;;;;;;4984695;28;20053;-64
2022/07/08 05:34:58;;;;;;;17.10;2.80;;;;;;;;;;4982100;28;20125;-64
2022/07/08 05:37:26;;;;;;;13.93;2.33;;;;;;;;;;4973953;28;20054;-64
2022/07/08 05:39:54;;;;;;;25.55;2.70;;;;;;;;;;4977861;28;20046;-64
2022/07/08 05:42:21;;;;;;;11.10;2.13;;;;;;;;;;4980844;28;20050;-64
2022/07/08 05:44:48;;;;;;;16.25;2.13;;;;;;;;;;4980434;28;20061;-64
2022/07/08 05:47:16;;;;;;;15.23;2.58;;;;;;;;;;4977198;28;20058;-64
2022/07/08 05:49:43;;;;;;;24.13;3.10;;;;;;;;;;4981574;28;20034;-64
2022/07/08 05:52:11;;;;;;;20.35;3.65;;;;;;;;;;4964103;28;20081;-64
2022/07/08 05:54:38;;;;;;;19.95;2.72;;;;;;;;;;4982645;28;20047;-64
2022/07/08 05:57:07;;;;;;;14.10;2.63;;;;;;;;;;4987710;28;20050;-65
2022/07/08 05:59:34;;;;;;;12.68;2.25;;;;;;;;;;4968407;28;20133;-64
2022/07/08 06:02:01;;;;;;;14.93;2.40;;;;;;;;;;4982730;28;20054;-64
2022/07/08 06:04:29;;;;;;;18.67;2.47;;;;;;;;;;4964881;28;20053;-65
2022/07/08 06:06:56;;;;;;;13.48;2.50;;;;;;;;;;4981134;28;20046;-64
2022/07/08 06:09:24;;;;;;;10.57;2.20;;;;;;;;;;4979892;28;20126;-65
2022/07/08 06:11:51;;;;;;;21.58;3.08;;;;;;;;;;4984926;28;20128;-65
2022/07/08 06:14:20;;;;;;;15.13;2.47;;;;;;;;;;4964430;28;20058;-64
2022/07/08 06:16:48;;;;;;;12.82;3.13;;;;;;;;;;4987123;28;20116;-65
2022/07/08 06:19:15;;;;;;;13.05;2.47;;;;;;;;;;4982583;28;20117;-65
2022/07/08 06:21:43;;;;;;;13.45;2.72;;;;;;;;;;4982358;28;20108;-65
2022/07/08 06:24:10;;;;;;;11.68;2.10;;;;;;;;;;4978721;28;20058;-65
2022/07/08 06:26:37;;;;;;;17.90;2.80;;;;;;;;;;4982579;28;20542;-65
2022/07/08 06:29:05;;;;;;;14.73;2.30;;;;;;;;;;4967418;28;20390;-64
2022/07/08 06:31:33;;;;;;;17.75;2.72;;;;;;;;;;4983145;28;20050;-65
2022/07/08 06:34:00;;;;;;;16.38;2.90;;;;;;;;;;4981467;28;20058;-65
2022/07/08 06:36:28;;;;;;;13.13;2.63;;;;;;;;;;4979999;28;20113;-64
2022/07/08 06:38:55;;;;;;;14.88;2.13;;;;;;;;;;4984313;28;20050;-65
2022/07/08 06:41:22;;;;;;;17.23;2.60;;;;;;;;;;4981872;28;20051;-65
2022/07/08 06:43:50;;;;;;;14.77;2.55;;;;;;;;;;4983070;28;20586;-64
2022/07/08 06:46:17;;;;;;;15.63;2.25;;;;;;;;;;4978192;28;20061;-64
2022/07/08 06:48:46;;;;;;;15.07;2.72;;;;;;;;;;4981505;28;20051;-65
2022/07/08 06:51:13;;;;;;;10.98;2.38;;;;;;;;;;4982202;28;20057;-65
2022/07/08 06:56:25;;;;;;;13.18;2.58;;;;;;;;;;4979181;28;20172;-65
2022/07/08 06:58:53;;;;;;;18.10;2.65;;;;;;;;;;4979058;28;20144;-65
2022/07/08 07:01:20;;;;;;;10.00;2.30;;;;;;;;;;4983565;28;20065;-64
2022/07/08 07:03:48;;;;;;;12.45;2.35;;;;;;;;;;4981028;28;20050;-65
2022/07/08 07:06:15;;;;;;;13.93;2.75;;;;;;;;;;4979361;28;20750;-65
2022/07/08 07:08:44;;;;;;;17.02;2.53;;;;;;;;;;4982328;28;20206;-65
2022/07/08 07:11:11;;;;;;;14.38;2.60;;;;;;;;;;4984431;28;20108;-64
2022/07/08 07:13:38;;;;;;;14.75;2.70;;;;;;;;;;4983843;28;20054;-65
2022/07/08 07:16:06;;;;;;;10.23;2.58;;;;;;;;;;4982327;28;20043;-65
2022/07/08 07:18:33;;;;;;;16.63;2.65;;;;;;;;;;4988994;28;20434;-65
2022/07/08 07:21:02;;;;;;;14.75;2.30;;;;;;;;;;4984636;28;20050;-65
2022/07/08 07:23:29;;;;;;;14.32;2.67;;;;;;;;;;4983089;28;20054;-64
2022/07/08 07:25:57;;;;;;;15.50;3.13;;;;;;;;;;4983351;28;20539;-64
2022/07/08 07:28:24;;;;;;;10.65;2.45;;;;;;;;;;4980662;28;20082;-64
2022/07/08 07:30:51;;;;;;;15.60;2.72;;;;;;;;;;4980360;28;20066;-64
2022/07/08 07:33:19;;;;;;;12.73;2.38;;;;;;;;;;4984532;28;20668;-65
2022/07/08 07:35:46;;;;;;;15.80;2.67;;;;;;;;;;4982518;28;20740;-65
2022/07/08 07:38:14;;;;;;;13.65;2.58;;;;;;;;;;4981561;28;20058;-66
2022/07/08 07:40:41;;;;;;;15.45;2.38;;;;;;;;;;4979933;28;20417;-65
2022/07/08 07:43:09;;;;;;;11.10;2.08;;;;;;;;;;4982557;28;20487;-65
2022/07/08 07:45:36;;;;;;;15.77;2.25;;;;;;;;;;4981836;28;20105;-65
2022/07/08 07:48:03;;;;;;;12.10;2.40;;;;;;;;;;4979967;28;20050;-65
2022/07/08 07:50:30;;;;;;;13.75;2.30;;;;;;;;;;4978820;28;20058;-65
2022/07/08 07:52:58;;;;;;;12.05;2.42;;;;;;;;;;4982464;28;20485;-65
2022/07/08 07:55:26;;;;;;;8.27;1.80;;;;;;;;;;4977269;28;20105;-65
2022/07/08 07:57:53;;;;;;;12.90;2.15;;;;;;;;;;4961645;28;20057;-65
2022/07/08 08:00:21;;;;;;;13.25;2.25;;;;;;;;;;4984738;28;20145;-65
2022/07/08 08:02:48;;;;;;;10.77;2.33;;;;;;;;;;4967943;28;20050;-65
2022/07/08 08:05:15;;;;;;;9.55;2.40;;;;;;;;;;4984810;28;20054;-65
2022/07/08 08:07:43;;;;;;;11.43;2.38;;;;;;;;;;4983899;28;20054;-65
2022/07/08 08:10:11;;;;;;;12.55;2.10;;;;;;;;;;4984205;28;20112;-64
2022/07/08 08:12:39;;;;;;;8.32;1.95;;;;;;;;;;4985798;28;20054;-65
2022/07/08 08:15:07;;;;;;;10.80;1.70;;;;;;;;;;4984807;28;20058;-65
2022/07/08 08:17:38;;;;;;;9.98;1.48;;;;;;;;;;4985053;28;20118;-64
2022/07/08 08:20:05;;;;;;;7.35;1.88;;;;;;;;;;4984229;28;20445;-65
2022/07/08 08:22:33;;;;;;;12.20;2.35;;;;;;;;;;4984790;28;20567;-65
2022/07/08 08:25:00;;;;;;;7.32;1.85;;;;;;;;;;4984319;28;20058;-65
2022/07/08 08:27:27;;;;;;;12.63;2.20;;;;;;;;;;4973365;28;20046;-64
2022/07/08 08:29:56;;;;;;;13.07;3.05;;;;;;;;;;4984852;28;20054;-65
2022/07/08 08:32:23;;;;;;;12.77;2.05;;;;;;;;;;4985513;28;20046;-64
2022/07/08 08:34:50;;;;;;;11.18;1.83;;;;;;;;;;4983626;28;20053;-64
2022/07/08 08:37:18;;;;;;;9.57;2.20;;;;;;;;;;4984580;28;20054;-64
2022/07/08 08:39:45;;;;;;;5.72;1.40;;;;;;;;;;4985051;28;20050;-65
2022/07/08 08:42:13;;;;;;;9.90;1.70;;;;;;;;;;4984136;28;20104;-65
2022/07/08 08:44:40;;;;;;;12.55;1.98;;;;;;;;;;4988874;28;20587;-65
2022/07/08 08:47:09;;;;;;;8.20;1.77;;;;;;;;;;4983695;28;20133;-65
2022/07/08 08:49:36;;;;;;;10.93;1.92;;;;;;;;;;4984898;28;20104;-65
2022/07/08 08:52:04;;;;;;;9.90;1.40;;;;;;;;;;4984833;28;20047;-65
2022/07/08 08:54:33;;;;;;;10.02;1.80;;;;;;;;;;4984531;28;20158;-65
2022/07/08 08:57:00;;;;;;;11.43;1.75;;;;;;;;;;4980009;28;20056;-65
2022/07/08 08:59:27;;;;;;;8.65;1.70;;;;;;;;;;4984353;28;21308;-64
2022/07/08 09:01:55;;;;;;;8.32;1.50;;;;;;;;;;4984098;28;20065;-66
2022/07/08 09:04:24;;;;;;;7.80;1.70;;;;;;;;;;4985566;28;20077;-65
2022/07/08 09:06:51;;;;;;;7.70;1.42;;;;;;;;;;4983428;28;20085;-65
2022/07/08 09:09:18;;;;;;;9.15;1.58;;;;;;;;;;4984933;28;20050;-66
2022/07/08 09:11:45;;;;;;;9.38;1.70;;;;;;;;;;4983721;28;20394;-65
2022/07/08 09:14:15;;;;;;;7.45;1.90;;;;;;;;;;4983427;28;20069;-64
2022/07/08 09:16:42;;;;;;;8.23;1.45;;;;;;;;;;4984143;28;20085;-65
2022/07/08 09:19:14;;;;;;;8.13;1.42;;;;;;;;;;4985292;28;20434;-65
2022/07/08 09:21:52;;;;;;;5.47;1.58;;;;;;;;;;4982395;28;20060;-65
2022/07/08 09:24:20;;;;;;;6.30;1.60;;;;;;;;;;4982647;28;20442;-65
2022/07/08 09:26:47;;;;;;;7.95;1.67;;;;;;;;;;4983685;28;20109;-65
2022/07/08 09:29:14;;;;;;;12.25;2.05;;;;;;;;;;4982845;28;20390;-66
2022/07/08 09:31:41;;;;;;;7.20;1.85;;;;;;;;;;4983843;28;20093;-65
2022/07/08 09:34:11;;;;;;;6.88;1.80;;;;;;;;;;4983239;28;20057;-65
2022/07/08 09:36:46;;;;;;;10.13;1.95;;;;;;;;;;4961576;28;20087;-65
2022/07/08 09:39:17;;;;;;;12.48;2.15;;;;;;;;;;4979009;28;20074;-65
2022/07/08 09:41:48;;;;;;;7.88;1.83;;;;;;;;;;4985931;28;20054;-65
2022/07/08 09:44:19;;;;;;;10.65;2.20;;;;;;;;;;4983670;28;20042;-65
2022/07/08 09:46:47;;;;;;;9.93;2.10;;;;;;;;;;4983370;28;20130;-66
2022/07/08 09:49:27;;;;;;;9.45;2.05;;;;;;;;;;4985950;28;20046;-65
2022/07/08 09:51:56;;;;;;;7.00;1.98;;;;;;;;;;4982967;28;20046;-65
2022/07/08 09:54:23;;;;;;;10.05;2.40;;;;;;;;;;4963961;28;20113;-65
2022/07/08 09:57:00;;;;;;;12.88;2.20;;;;;;;;;;4983846;28;20054;-66
2022/07/08 09:59:28;;;;;;;12.55;2.55;;;;;;;;;;4980742;28;20062;-64
2022/07/08 10:01:55;;;;;;;10.18;2.72;;;;;;;;;;4983116;28;20042;-66
2022/07/08 10:04:24;;;;;;;14.05;2.20;;;;;;;;;;4980173;28;20762;-65
2022/07/08 10:06:51;;;;;;;12.05;2.95;;;;;;;;;;4981844;28;20116;-66
2022/07/08 10:09:20;;;;;;;13.60;2.50;;;;;;;;;;4982268;28;20058;-65
2022/07/08 10:11:48;;;;;;;13.90;3.10;;;;;;;;;;4982913;28;20532;-66
2022/07/08 10:14:15;;;;;;;13.02;2.42;;;;;;;;;;4983584;28;20061;-65
2022/07/08 10:16:43;;;;;;;12.38;2.45;;;;;;;;;;4982847;28;20046;-65
2022/07/08 10:19:13;;;;;;;10.02;2.85;;;;;;;;;;4970114;28;20709;-65
2022/07/08 10:21:41;;;;;;;13.07;2.95;;;;;;;;;;4980845;28;20108;-66
2022/07/08 10:24:09;;;;;;;12.27;2.85;;;;;;;;;;4983678;28;20054;-65
2022/07/08 10:26:40;;;;;;;12.20;2.80;;;;;;;;;;4982167;28;20043;-65
2022/07/08 10:29:07;;;;;;;10.38;2.75;;;;;;;;;;4982107;28;20116;-65
2022/07/08 10:31:42;;;;;;;10.88;2.67;;;;;;;;;;4981468;28;20061;-65
2022/07/08 10:34:10;;;;;;;15.40;2.45;;;;;;;;;;4982356;28;20050;-65
2022/07/08 10:36:43;;;;;;;13.27;2.60;;;;;;;;;;4983022;28;20053;-65
2022/07/08 10:39:10;;;;;;;;;;;;;;;;;;4969122;28;20559;-66
2022/07/08 10:41:39;;;;;;;12.70;2.63;;;;;;;;;;4981751;28;20769;-65
2022/07/08 10:44:07;;;;;;;11.63;2.65;;;;;;;;;;4973869;28;20047;-66
2022/07/08 10:46:34;;;;;;;11.90;2.80;;;;;;;;;;4982204;28;20100;-65
2022/07/08 10:49:02;;;;;;;14.05;3.17;;;;;;;;;;4982136;28;20054;-65
2022/07/08 10:51:57;;;;;;;15.90;3.08;;;;;;;;;;4978362;28;20567;-65
2022/07/08 10:54:36;;;;;;;10.75;2.80;;;;;;;;;;4982532;28;20413;-65
2022/07/08 10:57:08;;;;;;;13.15;2.88;;;;;;;;;;4980779;28;20057;-66
2022/07/08 10:59:36;;;;;;;15.93;3.33;;;;;;;;;;4982006;28;20108;-65
2022/07/08 11:02:05;;;;;;;11.98;2.90;;;;;;;;;;4981576;28;20113;-65
2022/07/08 11:04:43;;;;;;;13.68;3.45;;;;;;;;;;4957996;28;20065;-65
2022/07/08 11:07:28;;;;;;;17.15;3.33;;;;;;;;;;4975178;28;20050;-65
2022/07/08 11:09:56;;;;;;;18.88;3.63;;;;;;;;;;4981798;28;20056;-65
2022/07/08 11:12:25;;;;;;;13.02;2.72;;;;;;;;;;4981619;28;20058;-65
2022/07/08 11:14:53;;;;;;;13.52;3.20;;;;;;;;;;4980638;28;20409;-65
2022/07/08 11:17:21;;;;;;;12.57;3.08;;;;;;;;;;4980559;28;20109;-65
2022/07/08 11:19:50;;;;;;;13.02;3.00;;;;;;;;;;4982306;28;20057;-65
2022/07/08 11:22:17;;;;;;;15.15;3.30;;;;;;;;;;4982706;28;20113;-65
2022/07/08 11:24:45;;;;;;;14.98;3.28;;;;;;;;;;4975664;28;20046;-65
2022/07/08 11:27:12;;;;;;;13.23;2.83;;;;;;;;;;4982046;28;20043;-65
2022/07/08 11:29:46;;;;;;;14.55;3.03;;;;;;;;;;4982035;28;20564;-66
2022/07/08 11:32:13;;;;;;;18.42;3.90;;;;;;;;;;4973712;28;20070;-66
2022/07/08 11:34:41;;;;;;;17.05;3.53;;;;;;;;;;4976571;28;20273;-66
2022/07/08 11:37:08;;;;;;;17.05;3.85;;;;;;;;;;4983311;28;20066;-65
2022/07/08 11:39:35;;;;;;;14.00;3.00;;;;;;;;;;4985631;28;20389;-65
2022/07/08 11:42:02;;;;;;;15.80;3.60;;;;;;;;;;4985790;28;20212;-65
2022/07/08 11:44:29;;;;;;;17.73;3.38;;;;;;;;;;4985642;28;20053;-65
2022/07/08 11:46:58;;;;;;;12.68;3.33;;;;;;;;;;4985484;28;20474;-65
2022/07/08 11:49:25;;;;;;;13.23;3.10;;;;;;;;;;4985291;28;20050;-65
2022/07/08 11:51:53;;;;;;;12.40;2.85;;;;;;;;;;4985781;28;20046;-66
2022/07/08 11:54:21;;;;;;;17.58;3.10;;;;;;;;;;4987159;28;20058;-65
2022/07/08 11:56:48;;;;;;;12.38;3.00;;;;;;;;;;4985584;28;20116;-65
2022/07/08 11:59:21;;;;;;;11.65;2.90;;;;;;;;;;4984573;28;20109;-66
2022/07/08 12:01:48;;;;;;;11.15;2.40;;;;;;;;;;4984151;28;20066;-66
2022/07/08 12:04:17;;;;;;;14.73;3.25;;;;;;;;;;4985540;28;20109;-66
2022/07/08 12:06:48;;;;;;;11.68;3.00;;;;;;;;;;4981230;28;20121;-66
2022/07/08 12:09:15;;;;;;;12.70;3.45;;;;;;;;;;4985633;28;20081;-65
2022/07/08 12:11:43;;;;;;;11.57;2.78;;;;;;;;;;4985314;28;20054;-66
2022/07/08 12:14:11;;;;;;;12.55;2.72;;;;;;;;;;4985531;28;20058;-66
2022/07/08 12:16:43;;;;;;;13.32;2.83;;;;;;;;;;4985337;28;20038;-66
2022/07/08 12:19:25;;;;;;;10.90;2.92;;;;;;;;;;4977732;28;20104;-66
2022/07/08 12:21:53;;;;;;;12.18;3.33;;;;;;;;;;4984125;28;20745;-66
2022/07/08 12:24:25;;;;;;;14.55;3.10;;;;;;;;;;4984462;28;20046;-65
2022/07/08 12:26:59;;;;;;;12.00;3.03;;;;;;;;;;4982687;28;20689;-66
2022/07/08 12:29:27;;;;;;;10.25;2.63;;;;;;;;;;4984471;28;20046;-65
2022/07/08 12:31:55;;;;;;;9.50;2.58;;;;;;;;;;4977194;28;20057;-65
2022/07/08 12:34:23;;;;;;;20.48;3.78;;;;;;;;;;4984855;28;20054;-66
2022/07/08 12:36:50;;;;;;;12.73;3.50;;;;;;;;;;4984386;28;20050;-66
2022/07/08 12:39:19;;;;;;;11.02;3.17;;;;;;;;;;4981542;28;20046;-65
2022/07/08 12:41:47;;;;;;;11.02;3.13;;;;;;;;;;4983930;28;20058;-66
2022/07/08 12:44:45;;;;;;;11.90;3.05;;;;;;;;;;4984137;28;20129;-65
2022/07/08 12:47:12;;;;;;;12.60;2.90;;;;;;;;;;4921697;29;20052;-67
2022/07/08 12:49:40;;;;;;;11.98;2.67;;;;;;;;;;4966662;28;20062;-66
2022/07/08 12:52:08;;;;;;;13.70;2.80;;;;;;;;;;4983537;28;20062;-66
2022/07/08 12:54:38;;;;;;;11.65;2.78;;;;;;;;;;4987654;28;20042;-66
2022/07/08 12:57:05;;;;;;;13.88;3.03;;;;;;;;;;4980329;28;20050;-65
2022/07/08 12:59:33;;;;;;;13.10;2.67;;;;;;;;;;4975634;28;20105;-66
2022/07/08 13:02:00;;;;;;;11.52;3.10;;;;;;;;;;4984327;28;20497;-66
2022/07/08 13:04:28;;;;;;;13.50;3.30;;;;;;;;;;4964738;28;20062;-65
2022/07/08 13:06:56;;;;;;;10.60;3.08;;;;;;;;;;4983957;28;20057;-65
2022/07/08 13:09:23;;;;;;;16.83;3.63;;;;;;;;;;4984072;28;20050;-65
2022/07/08 13:11:53;;;;;;;11.60;2.80;;;;;;;;;;4984050;28;20050;-66
2022/07/08 13:14:20;;;;;;;13.20;3.22;;;;;;;;;;4989312;28;20089;-66
2022/07/08 13:16:47;;;;;;;11.57;3.00;;;;;;;;;;4983885;28;20414;-65
2022/07/08 13:19:14;;;;;;;8.82;2.47;;;;;;;;;;4984471;28;20046;-66
2022/07/08 13:21:42;;;;;;;11.13;2.53;;;;;;;;;;4983536;28;20046;-66
2022/07/08 13:24:09;;;;;;;8.70;2.25;;;;;;;;;;4983187;28;20145;-66
2022/07/08 13:26:36;;;;;;;9.45;2.50;;;;;;;;;;4983300;28;20046;-66
2022/07/08 13:29:05;;;;;;;6.45;2.15;;;;;;;;;;4983507;28;20050;-66
2022/07/08 13:31:32;;;;;;;10.93;2.47;;;;;;;;;;4979581;28;20050;-66
2022/07/08 13:34:00;;;;;;;7.47;2.25;;;;;;;;;;4984223;28;20065;-65
2022/07/08 13:36:27;;;;;;;10.00;2.35;;;;;;;;;;4984100;28;20663;-66
2022/07/08 13:38:55;;;;;;;9.10;2.42;;;;;;;;;;4983028;28;20057;-66
2022/07/08 13:41:29;;;;;;;9.18;2.30;;;;;;;;;;4980789;28;20059;-66
2022/07/08 13:43:56;;;;;;;10.07;2.60;;;;;;;;;;4979963;28;20046;-66
2022/07/08 13:46:25;;;;;;;10.15;2.33;;;;;;;;;;4982467;28;20058;-66
2022/07/08 13:48:52;;;;;;;8.15;2.42;;;;;;;;;;4982618;28;20055;-66
2022/07/08 13:51:19;;;;;;;7.10;1.65;;;;;;;;;;4983857;28;20050;-66
2022/07/08 13:53:47;;;;;;;9.75;2.33;;;;;;;;;;4980085;28;20054;-66
2022/07/08 13:56:14;;;;;;;8.68;2.50;;;;;;;;;;4981723;28;20058;-66
2022/07/08 13:58:41;;;;;;;9.30;2.17;;;;;;;;;;4983558;28;20043;-66
2022/07/08 14:01:09;;;;;;;5.75;2.20;;;;;;;;;;4983213;28;20059;-66
2022/07/08 14:03:37;;;;;;;6.43;2.35;;;;;;;;;;4982828;28;20125;-65
2022/07/08 14:06:05;;;;;;;10.13;2.55;;;;;;;;;;4983610;28;20137;-66
2022/07/08 14:08:32;;;;;;;12.63;2.67;;;;;;;;;;4982530;28;20046;-67
2022/07/08 14:11:00;;;;;;;9.82;2.42;;;;;;;;;;4984138;28;20058;-66
2022/07/08 14:13:28;;;;;;;8.45;2.20;;;;;;;;;;4983893;28;20064;-67
2022/07/08 14:15:55;;;;;;;9.70;2.38;;;;;;;;;;4982959;28;20050;-66
2022/07/08 14:18:22;;;;;;;6.80;2.40;;;;;;;;;;4983403;28;20564;-67
2022/07/08 14:20:51;;;;;;;7.13;2.15;;;;;;;;;;4982137;28;20073;-66
2022/07/08 14:23:18;;;;;;;10.35;2.35;;;;;;;;;;4980306;28;20132;-66
2022/07/08 14:25:46;;;;;;;6.57;2.22;;;;;;;;;;4985028;28;20054;-66
2022/07/08 14:28:13;;;;;;;5.20;2.08;;;;;;;;;;4980393;28;20047;-66
2022/07/08 14:30:41;;;;;;;9.57;2.45;;;;;;;;;;4982386;28;20092;-66
2022/07/08 14:33:08;;;;;;;6.80;2.15;;;;;;;;;;4963882;28;20726;-66
2022/07/08 14:35:35;;;;;;;10.93;2.50;;;;;;;;;;4983205;28;20046;-66
2022/07/08 14:38:04;;;;;;;10.63;2.00;;;;;;;;;;4966967;28;20058;-66
2022/07/08 14:40:37;;;;;;;10.52;2.53;;;;;;;;;;4983507;28;20065;-67
2022/07/08 14:43:04;;;;;;;11.52;2.30;;;;;;;;;;4987091;28;20597;-67